createdAt,value
2023-03-05T00:29:07.107Z,87.69
2023-03-05T00:59:07.016Z,89.07
2023-03-05T01:29:07.193Z,89.48
2023-03-05T01:59:06.730Z,89.21
2023-03-05T02:29:06.958Z,89.57
2023-03-05T03:29:07.040Z,89.15
2023-03-05T03:29:07.388Z,90.6
2023-03-05T03:59:06.976Z,91.06
2023-03-05T04:59:06.721Z,89.77
2023-03-05T04:59:07.053Z,87.31
2023-03-05T05:29:06.908Z,88.52
2023-03-05T05:59:06.817Z,90.41
2023-03-05T06:29:06.755Z,90.76
2023-03-05T06:59:07.544Z,90.19
2023-03-05T07:29:06.986Z,89.23
2023-03-05T07:59:06.412Z,87.16
2023-03-05T08:29:06.983Z,81.05
2023-03-05T08:59:06.796Z,75.12
2023-03-05T09:29:06.708Z,76.64
2023-03-05T09:59:06.864Z,72.23
2023-03-05T10:29:06.798Z,65.38
2023-03-05T10:59:06.340Z,60.06
2023-03-05T11:29:06.565Z,56.84
2023-03-05T12:29:06.949Z,54.75
2023-03-05T12:59:07.200Z,51.39
2023-03-05T13:29:06.144Z,50.93
2023-03-05T13:59:07.896Z,50.02
2023-03-05T14:29:06.516Z,55.13
2023-03-05T14:59:06.110Z,55.04
2023-03-05T15:29:06.045Z,56.49
2023-03-05T15:59:06.489Z,58.78
2023-03-05T16:29:05.713Z,59.88
2023-03-05T16:59:06.358Z,61.07
2023-03-05T17:29:07.999Z,64.86
2023-03-05T17:59:06.109Z,69.22
2023-03-05T18:29:05.777Z,72.84
2023-03-05T18:59:06.490Z,75.95
2023-03-05T19:29:05.769Z,76.42
2023-03-05T19:59:05.975Z,80.94
2023-03-05T20:29:05.666Z,82.99
2023-03-05T20:59:05.633Z,82.38
2023-03-05T21:29:05.442Z,84.95
2023-03-05T21:59:06.165Z,85.53
2023-03-05T22:29:05.472Z,86.4
2023-03-05T23:29:05.694Z,87.22
2023-03-05T23:59:05.723Z,87.02
